Laida — EAVE — position and weather

sailwx.info

Track history (hours):
 
Tides and Currents Weather Stations Pressure Air Temp Water Temp Dewpoint Dewpoint Depression Visibility Wind Speed Wind Dir Waves Ship Positions

Laida

Last reported at 2015-Jan-28 13:27 UTC. Time now 2015-Jan-28 14:14 UTC.
Position N 53°39' E 009°31'.

Length 100 m; draft 6.2 m.

Type: Cargo ship. MMSI: 224509000.

Date/timePositionNaut miles runAvg speedWind from/ knotsBaromVisibWave heightAir tempDewpointWater temp
2015-Jan-28 13:27N 53°39' E 009°31'0 0.0
2015-Jan-28 12:33N 53°39' E 009°31'0 0.0
2015-Jan-28 11:33N 53°39' E 009°31'0 0.0
2015-Jan-28 10:21N 53°39' E 009°31'0 0.0
2015-Jan-28 09:27N 53°39' E 009°31'0 0.0
2015-Jan-28 08:21N 53°39' E 009°31'0 0.0
2015-Jan-28 07:33N 53°39' E 009°31'0 0.0
2015-Jan-28 06:21N 53°39' E 009°31'0 0.0
2015-Jan-28 05:33N 53°39' E 009°31'0 0.0
2015-Jan-28 03:21N 53°39' E 009°31'0 0.0
2015-Jan-28 01:21N 53°39' E 009°31'0 0.0
2015-Jan-28 00:33N 53°39' E 009°31'0 0.0
2015-Jan-27 23:27N 53°39' E 009°31'0 0.0
2015-Jan-27 22:33N 53°39' E 009°31'0 0.0
2015-Jan-27 21:33N 53°39' E 009°31'0 0.0
2015-Jan-27 20:27N 53°39' E 009°31'0 0.0
2015-Jan-27 19:27N 53°39' E 009°31'0 0.0
2015-Jan-27 18:21N 53°39' E 009°31'0 0.0
2015-Jan-27 17:27N 53°39' E 009°31'0 0.0
2015-Jan-27 16:21N 53°39' E 009°31'0 0.0
2015-Jan-27 15:33N 53°39' E 009°31'0 0.0
2015-Jan-27 13:21N 53°39' E 009°31'0 0.0
2015-Jan-27 12:15N 53°39' E 009°31'0 0.0
2015-Jan-27 11:33N 53°39' E 009°31'0 0.0
2015-Jan-27 10:09N 53°39' E 009°31'0 0.0
2015-Jan-27 09:27N 53°39' E 009°31'0 0.0
2015-Jan-27 08:30N 53°39' E 009°31'0 0.0
2015-Jan-27 07:09N 53°39' E 009°31'0 0.0
2015-Jan-27 05:27N 53°39' E 009°31'0 0.1
2015-Jan-27 04:33N 53°39' E 009°31'9 9.1
2015-Jan-27 03:33N 53°47' E 009°23'1212.1
2015-Jan-27 02:34N 53°52' E 009°04'1312.7
2015-Jan-27 01:34N 53°52' E 008°43'1312.5
2015-Jan-27 00:33N 53°59' E 008°25'1312.7
2015-Jan-26 23:33N 53°59' E 008°03'1411.5
2015-Jan-26 22:20N 53°57' E 007°39'1010.8
2015-Jan-26 21:24N 53°54' E 007°23'4210.3
2015-Jan-26 17:17N 53°43' E 006°14'810.7
2015-Jan-26 16:33N 53°41' E 006°01'1111.0
2015-Jan-26 15:34N 53°37' E 005°44'1111.3
2015-Jan-26 14:34N 53°33' E 005°26'1211.6
2015-Jan-26 13:33N 53°30' E 005°07'1211.9
2015-Jan-26 12:33N 53°26' E 004°48'3511.7
2015-Jan-26 09:33N 52°56' E 004°18'1312.7
2015-Jan-26 08:33N 52°46' E 004°05'1312.8
2015-Jan-26 07:33N 52°36' E 003°51'8611.7
2015-Jan-26 00:12N 51°32' E 002°17'6 9.4
2015-Jan-25 23:33N 51°28' E 002°10'10 9.7
2015-Jan-25 22:34N 51°20' E 002°00'1010.0
2015-Jan-25 21:34N 51°12' E 001°50'1110.6
2015-Jan-25 20:34N 51°04' E 001°40'  
2015-Jan-21 04:20N 39°04' W 009°48'8 8.1
2015-Jan-21 03:17N 38°55' W 009°50'9 8.1
2015-Jan-21 02:08N 38°46' W 009°51'5 8.2
2015-Jan-21 01:30N 38°41' W 009°49'8 7.9
2015-Jan-21 00:26N 38°33' W 009°47'7 7.9
2015-Jan-20 23:30N 38°26' W 009°45'7 7.7
2015-Jan-20 22:34N 38°19' W 009°42'16 7.9
2015-Jan-20 20:28N 38°02' W 009°38'16 8.3
2015-Jan-20 18:33N 37°47' W 009°34'  
Track history (hours):
 
Tides and Currents Weather Stations Pressure Air Temp Water Temp Dewpoint Dewpoint Depression Visibility Wind Speed Wind Dir Waves Ship Positions

Laida

Last reported at 2015-Jan-28 13:27 UTC. Time now 2015-Jan-28 14:14 UTC.
Position N 53°39' E 009°31'.

Length 100 m; draft 6.2 m.

Type: Cargo ship. MMSI: 224509000.

Date/timePositionNaut miles runAvg speedWind from/ knotsBaromVisibWave heightAir tempDewpointWater temp
2015-Jan-28 13:27N 53°39' E 009°31'0 0.0
2015-Jan-28 12:33N 53°39' E 009°31'0 0.0
2015-Jan-28 11:33N 53°39' E 009°31'0 0.0
2015-Jan-28 10:21N 53°39' E 009°31'0 0.0
2015-Jan-28 09:27N 53°39' E 009°31'0 0.0
2015-Jan-28 08:21N 53°39' E 009°31'0 0.0
2015-Jan-28 07:33N 53°39' E 009°31'0 0.0
2015-Jan-28 06:21N 53°39' E 009°31'0 0.0
2015-Jan-28 05:33N 53°39' E 009°31'0 0.0
2015-Jan-28 03:21N 53°39' E 009°31'0 0.0
2015-Jan-28 01:21N 53°39' E 009°31'0 0.0
2015-Jan-28 00:33N 53°39' E 009°31'0 0.0
2015-Jan-27 23:27N 53°39' E 009°31'0 0.0
2015-Jan-27 22:33N 53°39' E 009°31'0 0.0
2015-Jan-27 21:33N 53°39' E 009°31'0 0.0
2015-Jan-27 20:27N 53°39' E 009°31'0 0.0
2015-Jan-27 19:27N 53°39' E 009°31'0 0.0
2015-Jan-27 18:21N 53°39' E 009°31'0 0.0
2015-Jan-27 17:27N 53°39' E 009°31'0 0.0
2015-Jan-27 16:21N 53°39' E 009°31'0 0.0
2015-Jan-27 15:33N 53°39' E 009°31'0 0.0
2015-Jan-27 13:21N 53°39' E 009°31'0 0.0
2015-Jan-27 12:15N 53°39' E 009°31'0 0.0
2015-Jan-27 11:33N 53°39' E 009°31'0 0.0
2015-Jan-27 10:09N 53°39' E 009°31'0 0.0
2015-Jan-27 09:27N 53°39' E 009°31'0 0.0
2015-Jan-27 08:30N 53°39' E 009°31'0 0.0
2015-Jan-27 07:09N 53°39' E 009°31'0 0.0
2015-Jan-27 05:27N 53°39' E 009°31'0 0.1
2015-Jan-27 04:33N 53°39' E 009°31'9 9.1
2015-Jan-27 03:33N 53°47' E 009°23'1212.1
2015-Jan-27 02:34N 53°52' E 009°04'1312.7
2015-Jan-27 01:34N 53°52' E 008°43'1312.5
2015-Jan-27 00:33N 53°59' E 008°25'1312.7
2015-Jan-26 23:33N 53°59' E 008°03'1411.5
2015-Jan-26 22:20N 53°57' E 007°39'1010.8
2015-Jan-26 21:24N 53°54' E 007°23'4210.3
2015-Jan-26 17:17N 53°43' E 006°14'810.7
2015-Jan-26 16:33N 53°41' E 006°01'1111.0
2015-Jan-26 15:34N 53°37' E 005°44'1111.3
2015-Jan-26 14:34N 53°33' E 005°26'1211.6
2015-Jan-26 13:33N 53°30' E 005°07'1211.9
2015-Jan-26 12:33N 53°26' E 004°48'3511.7
2015-Jan-26 09:33N 52°56' E 004°18'1312.7
2015-Jan-26 08:33N 52°46' E 004°05'1312.8
2015-Jan-26 07:33N 52°36' E 003°51'8611.7
2015-Jan-26 00:12N 51°32' E 002°17'6 9.4
2015-Jan-25 23:33N 51°28' E 002°10'10 9.7
2015-Jan-25 22:34N 51°20' E 002°00'1010.0
2015-Jan-25 21:34N 51°12' E 001°50'1110.6
2015-Jan-25 20:34N 51°04' E 001°40'  
2015-Jan-21 04:20N 39°04' W 009°48'8 8.1
2015-Jan-21 03:17N 38°55' W 009°50'9 8.1
2015-Jan-21 02:08N 38°46' W 009°51'5 8.2
2015-Jan-21 01:30N 38°41' W 009°49'8 7.9
2015-Jan-21 00:26N 38°33' W 009°47'7 7.9
2015-Jan-20 23:30N 38°26' W 009°45'7 7.7
2015-Jan-20 22:34N 38°19' W 009°42'16 7.9
2015-Jan-20 20:28N 38°02' W 009°38'16 8.3
2015-Jan-20 18:33N 37°47' W 009°34'  

Dump ship's entire track history